Terminal Aerodrome Forecast
Issued by NWS

Home | Current Version | Previous Version | Text Only | Print | Product List | Glossary On
Versions: 1 2 3 4 5 6 7 8 9 10 11 12 13 14 15 16
676
FTUS46 KMTR 261258 AAA
TAFOAK
TAF AMD
KOAK 261258Z 2613/2718 25008KT P6SM FEW020
     FM261800 29014KT P6SM SCT020
     FM270400 29012KT P6SM OVC010
     FM270800 29010KT P6SM OVC010=

USA.gov is the U.S. government's official web portal to all federal, state and local government web resources and services.